createdAt,value
2019-01-26T00:00:33.579Z,1003.33
2019-01-26T00:01:33.676Z,1003.34
2019-01-26T00:02:33.870Z,1003.31
2019-01-26T00:03:34.074Z,1003.35
2019-01-26T00:04:34.243Z,1003.29
2019-01-26T00:05:34.399Z,1003.30
2019-01-26T00:06:34.594Z,1003.33
2019-01-26T00:07:34.806Z,1003.31
2019-01-26T00:08:34.956Z,1003.32
2019-01-26T00:09:35.115Z,1003.35
2019-01-26T00:10:35.282Z,1003.36
2019-01-26T00:11:35.487Z,1003.36
2019-01-26T00:12:35.642Z,1003.34
2019-01-26T00:13:35.829Z,1003.22
2019-01-26T00:14:35.991Z,1003.25
2019-01-26T00:15:36.206Z,1003.18
2019-01-26T00:16:36.336Z,1003.15
2019-01-26T00:17:36.517Z,1003.10
2019-01-26T00:18:36.704Z,1003.04
2019-01-26T00:19:36.865Z,1002.98
2019-01-26T00:20:37.067Z,1002.93
2019-01-26T00:21:37.262Z,1002.84
2019-01-26T00:22:37.429Z,1002.80
2019-01-26T00:23:37.668Z,1002.78
2019-01-26T00:24:37.831Z,1002.78
2019-01-26T00:25:37.949Z,1002.75
2019-01-26T00:26:38.149Z,1002.72
2019-01-26T00:27:38.299Z,1002.64
2019-01-26T00:28:38.530Z,1002.65
2019-01-26T00:29:38.647Z,1002.63
2019-01-26T00:30:38.812Z,1002.59
2019-01-26T00:31:39.020Z,1002.56
2019-01-26T00:32:39.293Z,1002.53
2019-01-26T00:33:43.096Z,1002.51
2019-01-26T00:34:39.506Z,1002.49
2019-01-26T00:35:39.695Z,1002.49
2019-01-26T00:36:39.913Z,1002.48
2019-01-26T00:37:40.076Z,1002.48
2019-01-26T00:38:40.276Z,1002.39
2019-01-26T00:39:40.419Z,1002.40
2019-01-26T00:40:40.662Z,1002.41
2019-01-26T00:41:40.775Z,1002.40
2019-01-26T00:42:40.949Z,1002.41
2019-01-26T00:43:41.168Z,1002.40
2019-01-26T00:44:41.326Z,1002.32
2019-01-26T00:45:41.474Z,1002.34
2019-01-26T00:46:41.652Z,1002.28
2019-01-26T00:47:41.829Z,1002.26
2019-01-26T00:48:42.054Z,1002.22
2019-01-26T00:49:42.191Z,1002.17
2019-01-26T00:50:42.346Z,1002.10
2019-01-26T00:51:42.523Z,1002.10
2019-01-26T00:52:42.680Z,1002.09
2019-01-26T00:53:42.886Z,1002.02
2019-01-26T00:54:43.075Z,1002.04
2019-01-26T00:55:43.226Z,1001.99
2019-01-26T00:56:43.477Z,1001.92
2019-01-26T00:57:43.602Z,1001.89
2019-01-26T00:58:43.777Z,1001.85
2019-01-26T00:59:43.966Z,1001.82
2019-01-26T01:00:44.115Z,1001.82
2019-01-26T01:01:44.308Z,1001.86
2019-01-26T01:02:44.458Z,1001.89
2019-01-26T01:03:44.619Z,1001.90
2019-01-26T01:04:44.862Z,1001.86
2019-01-26T01:05:45.106Z,1001.88
2019-01-26T01:06:45.204Z,1001.88
2019-01-26T01:07:45.418Z,1001.85
2019-01-26T01:08:45.523Z,1001.79
2019-01-26T01:09:45.774Z,1001.82
2019-01-26T01:10:45.907Z,1001.81
2019-01-26T01:11:46.093Z,1001.73
2019-01-26T01:12:46.255Z,1001.80
2019-01-26T01:13:46.561Z,1001.74
2019-01-26T01:14:46.629Z,1001.80
2019-01-26T01:15:46.787Z,1001.80
2019-01-26T01:16:46.989Z,1001.76
2019-01-26T01:17:47.143Z,1001.70
2019-01-26T01:18:47.335Z,1001.69
2019-01-26T01:19:47.517Z,1001.62
2019-01-26T01:20:47.703Z,1001.71
2019-01-26T01:21:47.979Z,1001.70
2019-01-26T01:22:48.027Z,1001.70
2019-01-26T01:23:48.238Z,1001.68
2019-01-26T01:24:48.383Z,1001.61
2019-01-26T01:25:48.565Z,1001.65
2019-01-26T01:26:48.754Z,1001.60
2019-01-26T01:27:48.917Z,1001.65
2019-01-26T01:28:49.122Z,1001.62
2019-01-26T01:29:49.343Z,1001.59
2019-01-26T01:30:49.404Z,1001.49
2019-01-26T01:31:49.619Z,1001.55
2019-01-26T01:32:49.999Z,1001.52
2019-01-26T01:33:49.990Z,1001.50
2019-01-26T01:34:50.225Z,1001.55
2019-01-26T01:35:50.319Z,1001.51
2019-01-26T01:36:50.498Z,1001.51
2019-01-26T01:37:50.683Z,1001.49
2019-01-26T01:38:50.917Z,1001.42
2019-01-26T01:39:51.041Z,1001.40
2019-01-26T01:40:51.199Z,1001.40
2019-01-26T01:41:51.383Z,1001.35
2019-01-26T01:42:51.538Z,1001.34
2019-01-26T01:43:51.763Z,1001.29
2019-01-26T01:44:51.925Z,1001.22
2019-01-26T01:45:52.089Z,1001.23
2019-01-26T01:46:52.366Z,1001.18
2019-01-26T01:47:52.435Z,1001.17
2019-01-26T01:48:52.665Z,1001.12
2019-01-26T01:49:52.817Z,1001.11
2019-01-26T01:50:52.976Z,1001.12
2019-01-26T01:51:53.171Z,1001.06
2019-01-26T01:52:53.319Z,1000.93
2019-01-26T01:53:53.524Z,1000.97
2019-01-26T01:54:53.813Z,1000.94
2019-01-26T01:55:53.872Z,1000.91
2019-01-26T01:56:54.060Z,1000.91
2019-01-26T01:57:54.210Z,1000.89
2019-01-26T01:58:54.434Z,1000.82
2019-01-26T01:59:54.623Z,1000.83
2019-01-26T02:00:54.772Z,1000.83
2019-01-26T02:01:54.969Z,1000.78
2019-01-26T02:02:55.158Z,1000.82
2019-01-26T02:03:55.299Z,1000.80
2019-01-26T02:04:55.485Z,1000.76
2019-01-26T02:05:55.660Z,1000.74
2019-01-26T02:06:55.836Z,1000.72
2019-01-26T02:07:56.015Z,1000.68
2019-01-26T02:08:56.214Z,1000.63
2019-01-26T02:09:56.379Z,1000.64
2019-01-26T02:10:56.582Z,1000.66
2019-01-26T02:11:56.761Z,1000.66
2019-01-26T02:12:56.966Z,1000.64
2019-01-26T02:13:57.411Z,1000.59
2019-01-26T02:14:57.341Z,1000.63
2019-01-26T02:15:57.480Z,1000.62
2019-01-26T02:16:57.687Z,1000.59
2019-01-26T02:17:57.860Z,1000.59
2019-01-26T02:18:58.059Z,1000.55
2019-01-26T02:19:58.317Z,1000.57
2019-01-26T02:20:58.378Z,1000.55
2019-01-26T02:21:58.584Z,1000.50
2019-01-26T02:22:58.768Z,1000.53
2019-01-26T02:23:58.925Z,1000.51
2019-01-26T02:24:59.127Z,1000.52
2019-01-26T02:25:59.295Z,1000.47
2019-01-26T02:26:59.438Z,1000.45
2019-01-26T02:27:59.775Z,1000.41
2019-01-26T02:28:59.832Z,1000.40
2019-01-26T02:30:00.162Z,1000.42
2019-01-26T02:31:00.183Z,1000.33
2019-01-26T02:32:00.379Z,1000.35
2019-01-26T02:33:00.563Z,1000.31
2019-01-26T02:34:00.719Z,1000.29
2019-01-26T02:35:00.928Z,1000.21
2019-01-26T02:36:01.146Z,1000.26
2019-01-26T02:37:01.246Z,1000.22
2019-01-26T02:38:01.427Z,1000.22
2019-01-26T02:39:01.601Z,1000.09
2019-01-26T02:40:01.803Z,1000.12
2019-01-26T02:41:01.956Z,1000.06
2019-01-26T02:42:02.163Z,1000.10
2019-01-26T02:43:02.337Z,1000.08
2019-01-26T02:44:02.512Z,1000.05
2019-01-26T02:45:02.663Z,999.99
2019-01-26T02:46:03.998Z,999.96
2019-01-26T02:47:03.028Z,999.97
2019-01-26T02:48:03.192Z,999.98
2019-01-26T02:49:03.347Z,999.98
2019-01-26T02:50:03.537Z,1000.02
2019-01-26T02:51:03.712Z,999.98
2019-01-26T02:52:03.920Z,999.99
2019-01-26T02:53:04.107Z,1000.05
2019-01-26T02:54:04.233Z,999.99
2019-01-26T02:55:04.427Z,999.95
2019-01-26T02:56:04.586Z,999.93
2019-01-26T02:57:04.771Z,999.98
2019-01-26T02:58:04.963Z,999.90
2019-01-26T02:59:05.126Z,999.84
2019-01-26T03:00:05.335Z,999.80
2019-01-26T03:01:05.575Z,999.79
2019-01-26T03:02:05.650Z,999.76
2019-01-26T03:03:05.851Z,999.77
2019-01-26T03:04:06.000Z,999.70
2019-01-26T03:05:06.211Z,999.67
2019-01-26T03:06:06.335Z,999.69
2019-01-26T03:07:06.556Z,999.62
2019-01-26T03:08:06.720Z,999.68
2019-01-26T03:09:07.005Z,999.60
2019-01-26T03:10:07.043Z,999.60
2019-01-26T03:11:07.467Z,999.54
2019-01-26T03:12:07.704Z,999.52
2019-01-26T03:13:07.864Z,999.47
2019-01-26T03:14:08.023Z,999.40
2019-01-26T03:15:08.192Z,999.41
2019-01-26T03:16:08.378Z,999.48
2019-01-26T03:17:08.624Z,999.37
2019-01-26T03:18:08.729Z,999.39
2019-01-26T03:19:08.903Z,999.31
2019-01-26T03:20:09.071Z,999.40
2019-01-26T03:21:09.276Z,999.40
2019-01-26T03:22:09.469Z,999.39
2019-01-26T03:23:09.623Z,999.33
2019-01-26T03:24:09.798Z,999.27
2019-01-26T03:25:10.009Z,999.25
2019-01-26T03:26:10.142Z,999.24
2019-01-26T03:27:10.376Z,999.20
2019-01-26T03:28:10.491Z,999.14
2019-01-26T03:29:10.669Z,999.21
2019-01-26T03:30:10.861Z,999.12
2019-01-26T03:31:11.095Z,999.19
2019-01-26T03:32:11.250Z,999.16
2019-01-26T03:33:11.458Z,999.19
2019-01-26T03:34:11.615Z,999.23
2019-01-26T03:35:11.752Z,999.24
2019-01-26T03:36:11.941Z,999.20
2019-01-26T03:37:12.133Z,999.25
2019-01-26T03:38:12.295Z,999.28
2019-01-26T03:39:12.440Z,999.24
2019-01-26T03:40:12.630Z,999.18
2019-01-26T03:41:12.834Z,999.16
2019-01-26T03:42:13.133Z,999.24
2019-01-26T03:43:13.201Z,999.22
2019-01-26T03:44:13.419Z,999.24
2019-01-26T03:45:13.562Z,999.20
2019-01-26T03:46:13.721Z,999.12
2019-01-26T03:47:14.070Z,999.10
2019-01-26T03:48:14.084Z,999.03
2019-01-26T03:49:14.251Z,999.00
2019-01-26T03:50:14.533Z,999.04
2019-01-26T03:51:14.597Z,999.05
2019-01-26T03:52:14.763Z,999.03
2019-01-26T03:53:14.957Z,999.02
2019-01-26T03:54:15.115Z,998.97
2019-01-26T03:55:15.311Z,998.94
2019-01-26T03:56:15.468Z,998.98
2019-01-26T03:57:15.644Z,999.04
2019-01-26T03:58:15.941Z,999.04
2019-01-26T03:59:15.979Z,999.00
2019-01-26T04:00:16.181Z,998.96
2019-01-26T04:01:16.347Z,998.95
2019-01-26T04:02:16.503Z,998.91
2019-01-26T04:03:16.733Z,998.89
2019-01-26T04:04:16.869Z,998.84
2019-01-26T04:05:17.073Z,998.83
2019-01-26T04:06:17.286Z,998.84
2019-01-26T04:07:17.385Z,998.83
2019-01-26T04:08:17.629Z,998.86
2019-01-26T04:09:17.761Z,998.83
2019-01-26T04:10:17.932Z,998.76
2019-01-26T04:11:18.135Z,998.82
2019-01-26T04:12:18.287Z,998.78
2019-01-26T04:13:18.498Z,998.76
2019-01-26T04:14:18.886Z,998.76
2019-01-26T04:15:18.943Z,998.74
2019-01-26T04:16:19.030Z,998.69
2019-01-26T04:17:21.872Z,998.68
2019-01-26T04:18:19.360Z,998.71
2019-01-26T04:19:19.539Z,998.70
2019-01-26T04:20:19.787Z,998.70
2019-01-26T04:21:19.909Z,998.64
2019-01-26T04:22:20.066Z,998.62
2019-01-26T04:23:20.353Z,998.60
2019-01-26T04:24:20.433Z,998.66
2019-01-26T04:25:20.645Z,998.66
2019-01-26T04:26:20.813Z,998.69
2019-01-26T04:27:20.974Z,998.74
2019-01-26T04:28:21.160Z,998.75
2019-01-26T04:29:21.330Z,998.66
2019-01-26T04:30:21.539Z,998.64
2019-01-26T04:31:21.783Z,998.68
2019-01-26T04:32:21.852Z,998.65
2019-01-26T04:33:22.068Z,998.63
2019-01-26T04:34:22.209Z,998.66
2019-01-26T04:35:22.389Z,998.60
2019-01-26T04:36:27.284Z,998.59
2019-01-26T04:37:22.759Z,998.52
2019-01-26T04:38:22.942Z,998.52
2019-01-26T04:39:23.156Z,998.51
2019-01-26T04:40:23.273Z,998.53
2019-01-26T04:41:23.499Z,998.60
2019-01-26T04:42:23.669Z,998.57
2019-01-26T04:43:23.837Z,998.55
2019-01-26T04:44:24.028Z,998.47
2019-01-26T04:45:24.215Z,998.40
2019-01-26T04:46:24.425Z,998.43
2019-01-26T04:47:30.869Z,998.51
2019-01-26T04:48:26.240Z,998.54
2019-01-26T04:49:25.149Z,998.42
2019-01-26T04:50:25.072Z,998.49
2019-01-26T04:51:25.279Z,998.43
2019-01-26T04:52:25.418Z,998.36
2019-01-26T04:53:25.611Z,998.41
2019-01-26T04:54:25.830Z,998.36
2019-01-26T04:55:26.737Z,998.30
2019-01-26T04:56:26.318Z,998.28
2019-01-26T04:57:30.791Z,998.22
2019-01-26T04:58:26.503Z,998.24
2019-01-26T04:59:26.708Z,998.23
2019-01-26T05:00:26.865Z,998.23
2019-01-26T05:01:27.072Z,998.22
2019-01-26T05:02:27.219Z,998.28
2019-01-26T05:03:27.394Z,998.23
2019-01-26T05:04:27.703Z,998.24
2019-01-26T05:05:27.764Z,998.26
2019-01-26T05:06:27.975Z,998.18
2019-01-26T05:07:28.111Z,998.24
2019-01-26T05:08:28.294Z,998.19
2019-01-26T05:09:28.484Z,998.16
2019-01-26T05:10:28.652Z,998.19
2019-01-26T05:11:28.844Z,998.19
2019-01-26T05:12:29.047Z,998.22
2019-01-26T05:13:29.195Z,998.17
2019-01-26T05:14:29.338Z,998.15
2019-01-26T05:15:29.522Z,998.21
2019-01-26T05:16:29.716Z,998.23
2019-01-26T05:17:29.877Z,998.23
2019-01-26T05:18:30.089Z,998.20
2019-01-26T05:19:30.247Z,998.20
2019-01-26T05:20:30.446Z,998.14
2019-01-26T05:21:30.582Z,998.23
2019-01-26T05:22:30.754Z,998.19
2019-01-26T05:23:30.919Z,998.13
2019-01-26T05:24:31.113Z,998.18
2019-01-26T05:25:31.278Z,998.15
2019-01-26T05:26:31.464Z,998.21
2019-01-26T05:27:31.637Z,998.18
2019-01-26T05:28:31.870Z,998.20
2019-01-26T05:29:32.063Z,998.13
2019-01-26T05:30:32.164Z,998.17
2019-01-26T05:31:32.345Z,998.05
2019-01-26T05:32:32.528Z,998.06
2019-01-26T05:33:32.709Z,998.06
2019-01-26T05:34:32.905Z,998.02
2019-01-26T05:35:33.070Z,998.00
2019-01-26T05:36:33.278Z,997.99
2019-01-26T05:37:33.549Z,997.98
2019-01-26T05:38:33.602Z,998.01
2019-01-26T05:39:33.799Z,998.01
2019-01-26T05:40:33.948Z,997.90
2019-01-26T05:41:34.151Z,997.83
2019-01-26T05:42:34.326Z,997.84
2019-01-26T05:43:34.483Z,997.86
2019-01-26T05:44:34.709Z,997.89
2019-01-26T05:45:34.972Z,997.86
2019-01-26T05:46:34.989Z,997.86
2019-01-26T05:47:35.173Z,997.84
2019-01-26T05:48:35.367Z,997.86
2019-01-26T05:49:35.584Z,997.88
2019-01-26T05:50:35.719Z,997.85
2019-01-26T05:51:35.897Z,997.87
2019-01-26T05:52:36.086Z,997.84
2019-01-26T05:53:36.308Z,997.89
2019-01-26T05:54:36.452Z,997.83
2019-01-26T05:55:36.610Z,997.79
2019-01-26T05:56:36.790Z,997.89
2019-01-26T05:57:37.013Z,997.83
2019-01-26T05:58:37.141Z,997.84
2019-01-26T05:59:37.349Z,997.84
2019-01-26T06:00:37.496Z,997.85
2019-01-26T06:01:37.737Z,997.82
2019-01-26T06:02:37.842Z,997.84
2019-01-26T06:03:38.016Z,997.83
2019-01-26T06:04:38.244Z,997.82
2019-01-26T06:05:38.359Z,997.86
2019-01-26T06:06:38.554Z,997.88
2019-01-26T06:07:38.745Z,997.90
2019-01-26T06:08:38.907Z,997.95
2019-01-26T06:09:39.142Z,997.94
2019-01-26T06:10:39.358Z,997.95
2019-01-26T06:11:39.436Z,997.88
2019-01-26T06:12:39.656Z,997.86
2019-01-26T06:13:39.784Z,997.90
2019-01-26T06:14:40.009Z,997.91
2019-01-26T06:15:40.136Z,997.90
2019-01-26T06:16:40.304Z,997.93
2019-01-26T06:17:40.504Z,997.89
2019-01-26T06:18:40.776Z,997.80
2019-01-26T06:19:40.899Z,997.86
2019-01-26T06:20:40.997Z,997.83
2019-01-26T06:21:41.189Z,997.86
2019-01-26T06:22:41.396Z,997.81
2019-01-26T06:23:41.556Z,997.79
2019-01-26T06:24:41.790Z,997.81
2019-01-26T06:25:41.907Z,997.82
2019-01-26T06:26:42.159Z,997.74
2019-01-26T06:27:42.481Z,997.71
2019-01-26T06:28:42.432Z,997.79
2019-01-26T06:29:42.655Z,997.78
2019-01-26T06:30:42.787Z,997.84
2019-01-26T06:31:42.965Z,997.93
2019-01-26T06:32:43.142Z,997.86
2019-01-26T06:33:43.316Z,997.85
2019-01-26T06:34:43.584Z,997.73
2019-01-26T06:35:43.651Z,997.78
2019-01-26T06:36:43.836Z,997.75
2019-01-26T06:37:44.029Z,997.67
2019-01-26T06:38:44.171Z,997.68
2019-01-26T06:39:44.421Z,997.67
2019-01-26T06:40:44.534Z,997.65
2019-01-26T06:41:44.712Z,997.67
2019-01-26T06:42:44.988Z,997.62
2019-01-26T06:43:45.064Z,997.59
2019-01-26T06:44:45.314Z,997.60
2019-01-26T06:45:45.422Z,997.54
2019-01-26T06:46:45.608Z,997.56
2019-01-26T06:47:45.805Z,997.55
2019-01-26T06:48:45.960Z,997.60
2019-01-26T06:49:46.132Z,997.61
2019-01-26T06:50:46.321Z,997.64
2019-01-26T06:51:46.606Z,997.64
2019-01-26T06:52:46.687Z,997.59
2019-01-26T06:53:46.852Z,997.65
2019-01-26T06:54:47.006Z,997.57
2019-01-26T06:55:47.217Z,997.57
2019-01-26T06:56:47.394Z,997.60
2019-01-26T06:57:47.585Z,997.57
2019-01-26T06:58:47.761Z,997.54
2019-01-26T06:59:48.035Z,997.58
2019-01-26T07:00:48.117Z,997.60
2019-01-26T07:01:48.283Z,997.58
2019-01-26T07:02:48.479Z,997.63
2019-01-26T07:03:48.668Z,997.58
2019-01-26T07:04:48.844Z,997.63
2019-01-26T07:05:48.999Z,997.64
2019-01-26T07:06:49.172Z,997.65
2019-01-26T07:07:49.469Z,997.64
2019-01-26T07:08:49.507Z,997.67
2019-01-26T07:09:49.718Z,997.64
2019-01-26T07:10:49.882Z,997.64
2019-01-26T07:11:50.054Z,997.60
2019-01-26T07:12:50.236Z,997.62
2019-01-26T07:13:50.398Z,997.64
2019-01-26T07:14:50.600Z,997.64
2019-01-26T07:15:50.793Z,997.67
2019-01-26T07:16:50.890Z,997.69
2019-01-26T07:17:51.112Z,997.68
2019-01-26T07:18:51.278Z,997.69
2019-01-26T07:19:51.488Z,997.65
2019-01-26T07:20:51.664Z,997.65
2019-01-26T07:21:51.818Z,997.68
2019-01-26T07:22:52.016Z,997.70
2019-01-26T07:23:52.186Z,997.73
2019-01-26T07:24:52.479Z,997.72
2019-01-26T07:25:52.579Z,997.72
2019-01-26T07:26:52.826Z,997.74
2019-01-26T07:27:52.937Z,997.74
2019-01-26T07:28:53.080Z,997.73
2019-01-26T07:29:53.314Z,997.79
2019-01-26T07:30:53.478Z,997.72
2019-01-26T07:31:53.662Z,997.75
2019-01-26T07:32:54.143Z,997.75
2019-01-26T07:33:53.972Z,997.74
2019-01-26T07:34:54.191Z,997.83
2019-01-26T07:35:54.356Z,997.87
2019-01-26T07:36:54.512Z,997.85
2019-01-26T07:37:54.701Z,997.91
2019-01-26T07:38:54.860Z,997.85
2019-01-26T07:39:55.049Z,997.87
2019-01-26T07:40:55.386Z,997.89
2019-01-26T07:41:55.384Z,997.86
2019-01-26T07:42:55.581Z,997.88
2019-01-26T07:43:55.739Z,997.87
2019-01-26T07:44:55.892Z,997.88
2019-01-26T07:45:56.115Z,997.81
2019-01-26T07:46:56.270Z,997.79
2019-01-26T07:47:56.460Z,997.78
2019-01-26T07:48:56.666Z,997.78
2019-01-26T07:49:56.761Z,997.78
2019-01-26T07:50:56.975Z,997.81
2019-01-26T07:51:57.150Z,997.80
2019-01-26T07:52:57.342Z,997.81
2019-01-26T07:53:57.512Z,997.82
2019-01-26T07:54:57.681Z,997.79
2019-01-26T07:55:57.874Z,997.75
2019-01-26T07:56:58.066Z,997.75
2019-01-26T07:57:58.202Z,997.75
2019-01-26T07:58:58.378Z,997.74
2019-01-26T07:59:58.547Z,997.80
2019-01-26T08:00:58.745Z,997.75
2019-01-26T08:01:58.888Z,997.71
2019-01-26T08:02:59.080Z,997.75
2019-01-26T08:03:59.539Z,997.76
2019-01-26T08:04:59.466Z,997.89
2019-01-26T08:05:59.673Z,997.80
2019-01-26T08:06:59.779Z,997.77
2019-01-26T08:07:59.975Z,997.78
2019-01-26T08:09:00.217Z,997.79
2019-01-26T08:10:00.347Z,997.75
2019-01-26T08:11:00.587Z,997.79
2019-01-26T08:12:00.706Z,997.79
2019-01-26T08:13:00.873Z,997.78
2019-01-26T08:14:01.211Z,997.86
2019-01-26T08:15:01.266Z,997.82
2019-01-26T08:16:01.470Z,997.81
2019-01-26T08:17:01.611Z,997.80
2019-01-26T08:18:01.770Z,997.83
2019-01-26T08:19:01.992Z,997.74
2019-01-26T08:20:02.185Z,997.71
2019-01-26T08:21:02.349Z,997.77
2019-01-26T08:22:02.590Z,997.74
2019-01-26T08:23:02.665Z,997.78
2019-01-26T08:24:02.869Z,997.76
2019-01-26T08:25:03.035Z,997.73
2019-01-26T08:26:03.229Z,997.73
2019-01-26T08:27:03.386Z,997.70
2019-01-26T08:28:03.562Z,997.71
2019-01-26T08:29:03.789Z,997.80
2019-01-26T08:30:03.930Z,997.76
2019-01-26T08:31:04.103Z,997.80
2019-01-26T08:32:04.256Z,997.78
2019-01-26T08:33:04.432Z,997.73
2019-01-26T08:34:04.626Z,997.71
2019-01-26T08:35:04.795Z,997.68
2019-01-26T08:36:04.960Z,997.67
2019-01-26T08:37:05.133Z,997.73
2019-01-26T08:38:05.363Z,997.67
2019-01-26T08:39:05.518Z,997.73
2019-01-26T08:40:05.706Z,997.66
2019-01-26T08:41:05.888Z,997.66
2019-01-26T08:42:06.015Z,997.68
2019-01-26T08:43:06.206Z,997.68
2019-01-26T08:44:06.398Z,997.69
2019-01-26T08:45:06.558Z,997.68
2019-01-26T08:46:06.774Z,997.61
2019-01-26T08:47:06.990Z,997.67
2019-01-26T08:48:07.077Z,997.60
2019-01-26T08:49:08.688Z,997.58
2019-01-26T08:50:07.443Z,997.62
2019-01-26T08:51:07.627Z,997.61
2019-01-26T08:52:07.771Z,997.66
2019-01-26T08:53:07.950Z,997.63
2019-01-26T08:54:08.157Z,997.68
2019-01-26T08:55:08.460Z,997.71
2019-01-26T08:56:08.532Z,997.76
2019-01-26T08:57:08.647Z,997.78
2019-01-26T08:58:08.849Z,997.76
2019-01-26T08:59:09.042Z,997.74
2019-01-26T09:00:09.206Z,997.72
2019-01-26T09:01:09.405Z,997.66
2019-01-26T09:02:09.557Z,997.70
2019-01-26T09:03:09.769Z,997.65
2019-01-26T09:04:09.913Z,997.66
2019-01-26T09:05:10.099Z,997.69
2019-01-26T09:06:10.289Z,997.70
2019-01-26T09:07:10.428Z,997.69
2019-01-26T09:08:10.590Z,997.65
2019-01-26T09:09:10.782Z,997.71
2019-01-26T09:10:10.989Z,997.62
2019-01-26T09:11:11.197Z,997.65
2019-01-26T09:12:11.293Z,997.69
2019-01-26T09:13:11.474Z,997.65
2019-01-26T09:14:11.654Z,997.67
2019-01-26T09:15:11.808Z,997.65
2019-01-26T09:16:12.036Z,997.70
2019-01-26T09:17:12.198Z,997.68
2019-01-26T09:18:12.395Z,997.70
2019-01-26T09:19:12.624Z,997.64
2019-01-26T09:20:12.763Z,997.68
2019-01-26T09:21:12.943Z,997.70
2019-01-26T09:22:13.108Z,997.80
2019-01-26T09:23:13.263Z,997.75
2019-01-26T09:24:13.459Z,997.75
2019-01-26T09:25:13.608Z,997.69
2019-01-26T09:26:13.847Z,997.69
2019-01-26T09:27:13.997Z,997.68
2019-01-26T09:28:14.277Z,997.72
2019-01-26T09:29:14.341Z,997.69
2019-01-26T09:30:14.485Z,997.75
2019-01-26T09:31:14.691Z,997.72
2019-01-26T09:32:14.869Z,997.75
2019-01-26T09:33:15.027Z,997.76
2019-01-26T09:34:15.236Z,997.71
2019-01-26T09:35:15.375Z,997.72
2019-01-26T09:36:15.657Z,997.70
2019-01-26T09:37:15.740Z,997.74
2019-01-26T09:38:15.914Z,997.77
2019-01-26T09:39:16.106Z,997.78
2019-01-26T09:40:16.271Z,997.77
2019-01-26T09:41:16.433Z,997.74
2019-01-26T09:42:16.634Z,997.80
2019-01-26T09:43:16.807Z,997.77
2019-01-26T09:44:17.275Z,997.80
2019-01-26T09:45:17.172Z,997.77
2019-01-26T09:46:17.325Z,997.75
2019-01-26T09:47:17.540Z,997.75
2019-01-26T09:48:17.679Z,997.75
2019-01-26T09:49:17.887Z,997.76
2019-01-26T09:50:18.046Z,997.70
2019-01-26T09:51:18.223Z,997.74
2019-01-26T09:52:18.523Z,997.70
2019-01-26T09:53:18.539Z,997.74
2019-01-26T09:54:18.754Z,997.71
2019-01-26T09:55:18.932Z,997.72
2019-01-26T09:56:19.110Z,997.70
2019-01-26T09:57:19.337Z,997.73
2019-01-26T09:58:19.982Z,997.74
2019-01-26T09:59:19.662Z,997.74
2019-01-26T10:00:19.847Z,997.76
2019-01-26T10:01:20.048Z,997.73
2019-01-26T10:02:20.226Z,997.76
2019-01-26T10:03:20.346Z,997.78
2019-01-26T10:04:20.529Z,997.76
2019-01-26T10:05:20.714Z,997.73
2019-01-26T10:06:20.894Z,997.72
2019-01-26T10:07:21.099Z,997.72
2019-01-26T10:08:21.255Z,997.73
2019-01-26T10:09:21.531Z,997.67
2019-01-26T10:10:21.598Z,997.65
2019-01-26T10:11:21.802Z,997.68
2019-01-26T10:12:21.978Z,997.71
2019-01-26T10:13:22.118Z,997.67
2019-01-26T10:14:22.299Z,997.70
2019-01-26T10:15:22.461Z,997.69
2019-01-26T10:16:22.670Z,997.64
2019-01-26T10:17:22.968Z,997.67
2019-01-26T10:18:23.000Z,997.64
2019-01-26T10:19:23.177Z,997.67
2019-01-26T10:20:23.352Z,997.76
2019-01-26T10:21:23.576Z,997.59
2019-01-26T10:22:23.768Z,997.62
2019-01-26T10:23:23.898Z,997.62
2019-01-26T10:24:24.077Z,997.56
2019-01-26T10:25:24.348Z,997.57
2019-01-26T10:26:24.419Z,997.57
2019-01-26T10:27:24.635Z,997.52
2019-01-26T10:28:24.789Z,997.55
2019-01-26T10:29:24.965Z,997.54
2019-01-26T10:30:25.158Z,997.53
2019-01-26T10:31:25.327Z,997.55
2019-01-26T10:32:25.491Z,997.53
2019-01-26T10:33:25.709Z,997.50
2019-01-26T10:34:25.826Z,997.47
2019-01-26T10:35:26.033Z,997.55
2019-01-26T10:36:30.384Z,997.48
2019-01-26T10:37:26.398Z,997.51
2019-01-26T10:38:26.539Z,997.52
2019-01-26T10:39:26.718Z,997.51
2019-01-26T10:40:26.945Z,997.51
2019-01-26T10:41:27.126Z,997.50
2019-01-26T10:42:27.839Z,997.50
2019-01-26T10:43:27.427Z,997.51
2019-01-26T10:44:27.607Z,997.47
2019-01-26T10:45:27.871Z,997.50
2019-01-26T10:46:28.000Z,997.48
2019-01-26T10:47:28.189Z,997.49
2019-01-26T10:48:28.319Z,997.44
2019-01-26T10:49:28.502Z,997.43
2019-01-26T10:50:28.791Z,997.43
2019-01-26T10:51:28.839Z,997.43
2019-01-26T10:52:29.049Z,997.44
2019-01-26T10:53:29.197Z,997.42
2019-01-26T10:54:29.365Z,997.43
2019-01-26T10:55:29.560Z,997.48
2019-01-26T10:56:29.733Z,997.47
2019-01-26T10:57:29.924Z,997.46
2019-01-26T10:58:30.212Z,997.46
2019-01-26T10:59:30.235Z,997.50
2019-01-26T11:00:30.449Z,997.44
2019-01-26T11:01:30.616Z,997.49
2019-01-26T11:02:30.800Z,997.46
2019-01-26T11:03:30.959Z,997.45
2019-01-26T11:04:31.134Z,997.43
2019-01-26T11:05:31.329Z,997.40
2019-01-26T11:06:31.578Z,997.44
2019-01-26T11:07:31.668Z,997.44
2019-01-26T11:08:31.829Z,997.41
2019-01-26T11:09:32.020Z,997.42
2019-01-26T11:10:32.218Z,997.41
2019-01-26T11:11:32.411Z,997.43
2019-01-26T11:12:32.538Z,997.43
2019-01-26T11:13:32.712Z,997.46
2019-01-26T11:14:32.930Z,997.48
2019-01-26T11:15:33.062Z,997.50
2019-01-26T11:16:33.291Z,997.45
2019-01-26T11:17:33.419Z,997.47
2019-01-26T11:18:33.599Z,997.48
2019-01-26T11:19:33.780Z,997.43
2019-01-26T11:20:33.971Z,997.50
2019-01-26T11:21:34.198Z,997.47
2019-01-26T11:22:34.641Z,997.44
2019-01-26T11:23:34.549Z,997.45
2019-01-26T11:24:34.675Z,997.36
2019-01-26T11:25:34.868Z,997.38
2019-01-26T11:26:35.052Z,997.37
2019-01-26T11:27:35.246Z,997.36
2019-01-26T11:28:35.357Z,997.33
2019-01-26T11:29:35.547Z,997.36
2019-01-26T11:30:35.759Z,997.30
2019-01-26T11:31:36.074Z,997.32
2019-01-26T11:32:36.124Z,997.31
2019-01-26T11:33:36.238Z,997.33
2019-01-26T11:34:36.431Z,997.33
2019-01-26T11:35:36.643Z,997.35
2019-01-26T11:36:36.804Z,997.32
2019-01-26T11:37:37.402Z,997.35
2019-01-26T11:38:37.182Z,997.34
2019-01-26T11:39:37.426Z,997.27
2019-01-26T11:40:37.541Z,997.31
2019-01-26T11:41:37.703Z,997.30
2019-01-26T11:42:37.944Z,997.28
2019-01-26T11:43:38.069Z,997.29
2019-01-26T11:44:38.229Z,997.26
2019-01-26T11:45:38.406Z,997.31
2019-01-26T11:46:38.584Z,997.24
2019-01-26T11:47:38.793Z,997.29
2019-01-26T11:48:38.922Z,997.31
2019-01-26T11:49:39.095Z,997.28
2019-01-26T11:50:39.290Z,997.30
2019-01-26T11:51:39.435Z,997.29
2019-01-26T11:52:39.643Z,997.26
2019-01-26T11:53:39.815Z,997.25
2019-01-26T11:54:39.981Z,997.24
2019-01-26T11:55:40.237Z,997.24
2019-01-26T11:56:40.311Z,997.28
2019-01-26T11:57:40.531Z,997.22
2019-01-26T11:58:40.723Z,997.30
2019-01-26T11:59:40.882Z,997.28
2019-01-26T12:00:41.098Z,997.26
2019-01-26T12:01:41.258Z,997.23
2019-01-26T12:02:41.436Z,997.21
2019-01-26T12:03:41.637Z,997.20
2019-01-26T12:04:41.879Z,997.18
2019-01-26T12:05:41.950Z,997.17
2019-01-26T12:06:42.121Z,997.13
2019-01-26T12:07:42.278Z,997.15
2019-01-26T12:08:42.535Z,997.13
2019-01-26T12:09:43.909Z,997.16
2019-01-26T12:10:42.854Z,997.17
2019-01-26T12:11:43.013Z,997.14
2019-01-26T12:12:43.289Z,997.19
2019-01-26T12:13:43.390Z,997.17
2019-01-26T12:14:43.543Z,997.14
2019-01-26T12:15:43.734Z,997.10
2019-01-26T12:16:43.900Z,997.08
2019-01-26T12:17:44.078Z,997.09
2019-01-26T12:18:44.290Z,997.10
2019-01-26T12:19:44.437Z,997.13
2019-01-26T12:20:44.727Z,997.10
2019-01-26T12:21:44.785Z,997.05
2019-01-26T12:22:44.967Z,997.09
2019-01-26T12:23:45.197Z,997.05
2019-01-26T12:24:45.304Z,997.06
2019-01-26T12:25:45.538Z,997.06